createdAt,value
2017-06-17T00:00:03.739Z,0
2017-06-17T00:01:04.330Z,0
2017-06-17T00:02:03.708Z,0
2017-06-17T00:03:03.978Z,0
2017-06-17T00:04:03.970Z,0
2017-06-17T00:05:03.961Z,0
2017-06-17T00:06:03.789Z,0
2017-06-17T00:07:03.967Z,0
2017-06-17T00:08:03.609Z,0
2017-06-17T00:09:03.879Z,0
2017-06-17T00:10:03.868Z,0
2017-06-17T00:11:03.544Z,0
2017-06-17T00:12:04.128Z,0
2017-06-17T00:13:03.919Z,0
2017-06-17T00:14:03.813Z,0
2017-06-17T00:15:03.801Z,0
2017-06-17T00:16:04.083Z,0
2017-06-17T00:17:03.746Z,0
2017-06-17T00:18:04.090Z,0
2017-06-17T00:19:03.720Z,0
2017-06-17T00:20:04.111Z,0
2017-06-17T00:21:03.377Z,0
2017-06-17T00:22:03.355Z,0
2017-06-17T00:23:04.095Z,0
2017-06-17T00:24:03.620Z,0
2017-06-17T00:25:04.028Z,0
2017-06-17T00:26:03.658Z,0
2017-06-17T00:27:03.908Z,0
2017-06-17T00:28:03.988Z,0
2017-06-17T00:29:03.233Z,0
2017-06-17T00:30:03.641Z,0
2017-06-17T00:31:03.576Z,0
2017-06-17T00:32:03.568Z,0
2017-06-17T00:33:03.465Z,0
2017-06-17T00:34:03.459Z,0
2017-06-17T00:35:03.850Z,0
2017-06-17T00:36:03.457Z,0
2017-06-17T00:37:03.465Z,0
2017-06-17T00:38:03.382Z,0
2017-06-17T00:39:03.679Z,0
2017-06-17T00:40:03.370Z,0
2017-06-17T00:41:03.028Z,0
2017-06-17T00:42:03.745Z,0
2017-06-17T00:43:03.000Z,0
2017-06-17T00:44:02.678Z,0
2017-06-17T00:45:03.328Z,0
2017-06-17T00:46:03.247Z,0
2017-06-17T00:47:03.255Z,0
2017-06-17T00:48:03.519Z,0
2017-06-17T00:49:02.878Z,0
2017-06-17T00:50:02.877Z,0
2017-06-17T00:51:02.878Z,0
2017-06-17T00:52:03.151Z,0
2017-06-17T00:53:03.130Z,0
2017-06-17T00:54:03.430Z,0
2017-06-17T00:55:03.408Z,0
2017-06-17T00:56:03.067Z,0
2017-06-17T00:57:03.519Z,0
2017-06-17T00:58:03.458Z,0
2017-06-17T00:59:03.357Z,0
2017-06-17T01:00:03.310Z,0
2017-06-17T01:01:02.722Z,0
2017-06-17T01:02:03.287Z,0
2017-06-17T01:03:03.308Z,0
2017-06-17T01:04:02.640Z,0
2017-06-17T01:05:02.950Z,0
2017-06-17T01:06:02.910Z,0
2017-06-17T01:07:02.629Z,0
2017-06-17T01:08:02.579Z,0
2017-06-17T01:09:02.849Z,0
2017-06-17T01:10:03.174Z,0
2017-06-17T01:11:02.839Z,0
2017-06-17T01:12:02.807Z,0
2017-06-17T01:13:03.090Z,0
2017-06-17T01:14:02.791Z,0
2017-06-17T01:15:02.451Z,0
2017-06-17T01:16:02.430Z,0
2017-06-17T01:17:02.660Z,0
2017-06-17T01:18:02.721Z,0
2017-06-17T01:19:02.700Z,0
2017-06-17T01:20:02.672Z,0
2017-06-17T01:21:02.651Z,0
2017-06-17T01:22:03.038Z,0
2017-06-17T01:23:02.972Z,0
2017-06-17T01:24:02.938Z,0
2017-06-17T01:25:02.909Z,0
2017-06-17T01:26:02.581Z,0
2017-06-17T01:27:02.241Z,0
2017-06-17T01:28:02.828Z,0
2017-06-17T01:29:02.842Z,0
2017-06-17T01:30:02.802Z,0
2017-06-17T01:31:02.815Z,0
2017-06-17T01:32:02.550Z,0
2017-06-17T01:33:02.138Z,0
2017-06-17T01:34:02.440Z,0
2017-06-17T01:35:02.741Z,0
2017-06-17T01:36:02.688Z,0
2017-06-17T01:37:02.123Z,0
2017-06-17T01:38:02.720Z,0
2017-06-17T01:39:02.654Z,0
2017-06-17T01:40:02.644Z,0
2017-06-17T01:41:02.619Z,0
2017-06-17T01:42:02.609Z,0
2017-06-17T01:43:02.268Z,0
2017-06-17T01:44:02.287Z,0
2017-06-17T01:45:02.549Z,0
2017-06-17T01:46:02.218Z,0
2017-06-17T01:47:01.969Z,0
2017-06-17T01:48:02.499Z,0
2017-06-17T01:49:02.466Z,0
2017-06-17T01:50:02.147Z,0
2017-06-17T01:51:02.139Z,0
2017-06-17T01:52:02.210Z,0
2017-06-17T01:53:02.418Z,0
2017-06-17T01:54:02.459Z,0
2017-06-17T01:55:01.459Z,0
2017-06-17T01:56:02.421Z,0
2017-06-17T01:57:02.039Z,0
2017-06-17T01:58:02.014Z,0
2017-06-17T01:59:01.990Z,0
2017-06-17T02:00:01.989Z,0
2017-06-17T02:01:01.960Z,0
2017-06-17T02:02:01.970Z,0
2017-06-17T02:03:01.938Z,0
2017-06-17T02:04:02.000Z,0
2017-06-17T02:05:01.891Z,0
2017-06-17T02:06:01.940Z,0
2017-06-17T02:07:01.607Z,0
2017-06-17T02:08:02.165Z,0
2017-06-17T02:09:01.825Z,0
2017-06-17T02:10:01.828Z,0
2017-06-17T02:11:01.511Z,0
2017-06-17T02:12:01.499Z,0
2017-06-17T02:13:01.466Z,0
2017-06-17T02:14:02.048Z,0
2017-06-17T02:15:01.715Z,0
2017-06-17T02:16:02.020Z,0
2017-06-17T02:17:02.030Z,0
2017-06-17T02:18:01.674Z,0
2017-06-17T02:19:01.479Z,0
2017-06-17T02:20:01.645Z,0
2017-06-17T02:21:01.350Z,0
2017-06-17T02:22:01.919Z,0
2017-06-17T02:23:01.697Z,0
2017-06-17T02:24:01.870Z,0
2017-06-17T02:25:01.868Z,0
2017-06-17T02:26:01.840Z,0
2017-06-17T02:27:01.830Z,0
2017-06-17T02:28:01.807Z,0
2017-06-17T02:29:01.810Z,0
2017-06-17T02:30:01.153Z,0
2017-06-17T02:31:01.480Z,0
2017-06-17T02:32:01.140Z,0
2017-06-17T02:33:01.521Z,4
2017-06-17T02:34:01.411Z,4
2017-06-17T02:35:01.705Z,4
2017-06-17T02:36:01.073Z,0
2017-06-17T02:37:01.341Z,0
2017-06-17T02:38:00.751Z,4
2017-06-17T02:39:01.321Z,0
2017-06-17T02:40:01.000Z,4
2017-06-17T02:41:00.681Z,4
2017-06-17T02:42:01.260Z,4
2017-06-17T02:43:01.250Z,4
2017-06-17T02:44:01.244Z,8
2017-06-17T02:45:01.220Z,8
2017-06-17T02:46:01.520Z,8
2017-06-17T02:47:01.503Z,8
2017-06-17T02:48:01.486Z,12
2017-06-17T02:49:01.165Z,12
2017-06-17T02:50:01.161Z,16
2017-06-17T02:51:01.109Z,16
2017-06-17T02:52:01.393Z,20
2017-06-17T02:53:01.395Z,20
2017-06-17T02:54:00.780Z,24
2017-06-17T02:55:00.749Z,24
2017-06-17T02:56:01.365Z,24
2017-06-17T02:57:01.001Z,28
2017-06-17T02:58:01.014Z,28
2017-06-17T02:59:00.385Z,32
2017-06-17T03:00:01.268Z,32
2017-06-17T03:01:01.251Z,36
2017-06-17T03:02:01.240Z,36
2017-06-17T03:03:01.225Z,40
2017-06-17T03:04:01.212Z,44
2017-06-17T03:05:00.883Z,48
2017-06-17T03:06:00.856Z,48
2017-06-17T03:07:00.529Z,52
2017-06-17T03:08:01.153Z,56
2017-06-17T03:09:00.800Z,60
2017-06-17T03:10:01.109Z,64
2017-06-17T03:11:01.107Z,68
2017-06-17T03:12:00.761Z,72
2017-06-17T03:13:01.060Z,72
2017-06-17T03:14:00.477Z,76
2017-06-17T03:15:00.730Z,80
2017-06-17T03:16:01.010Z,76
2017-06-17T03:17:00.990Z,76
2017-06-17T03:18:00.406Z,80
2017-06-17T03:19:00.336Z,84
2017-06-17T03:20:00.936Z,88
2017-06-17T03:21:00.294Z,96
2017-06-17T03:22:00.581Z,100
2017-06-17T03:23:00.254Z,100
2017-06-17T03:24:00.860Z,92
2017-06-17T03:25:00.526Z,88
2017-06-17T03:26:00.531Z,92
2017-06-17T03:27:00.207Z,88
2017-06-17T03:28:00.482Z,96
2017-06-17T03:28:59.850Z,100
2017-06-17T03:30:00.458Z,104
2017-06-17T03:31:00.137Z,112
2017-06-17T03:32:00.428Z,120
2017-06-17T03:33:00.394Z,128
2017-06-17T03:34:00.683Z,132
2017-06-17T03:35:00.090Z,136
2017-06-17T03:36:00.362Z,140
2017-06-17T03:37:00.637Z,148
2017-06-17T03:38:00.076Z,156
2017-06-17T03:39:00.429Z,168
2017-06-17T03:40:00.640Z,180
2017-06-17T03:41:00.276Z,192
2017-06-17T03:42:00.321Z,204
2017-06-17T03:43:00.603Z,212
2017-06-17T03:44:00.644Z,220
2017-06-17T03:44:59.893Z,216
2017-06-17T03:46:00.479Z,204
2017-06-17T03:47:00.465Z,188
2017-06-17T03:48:00.158Z,188
2017-06-17T03:48:59.839Z,192
2017-06-17T03:50:00.206Z,200
2017-06-17T03:51:00.553Z,200
2017-06-17T03:52:00.385Z,216
2017-06-17T03:53:00.367Z,240
2017-06-17T03:54:00.086Z,272
2017-06-17T03:55:00.011Z,288
2017-06-17T03:56:00.345Z,304
2017-06-17T03:57:00.447Z,308
2017-06-17T03:58:00.017Z,300
2017-06-17T03:58:59.986Z,296
2017-06-17T03:59:59.942Z,296
2017-06-17T04:01:00.328Z,296
2017-06-17T04:01:59.934Z,296
2017-06-17T04:02:59.899Z,300
2017-06-17T04:04:00.195Z,312
2017-06-17T04:05:00.242Z,328
2017-06-17T04:06:00.155Z,348
2017-06-17T04:07:00.155Z,380
2017-06-17T04:08:00.235Z,408
2017-06-17T04:08:59.476Z,448
2017-06-17T04:09:59.461Z,500
2017-06-17T04:11:00.070Z,552
2017-06-17T04:11:59.432Z,556
2017-06-17T04:12:59.720Z,516
2017-06-17T04:14:00.029Z,484
2017-06-17T04:15:00.004Z,476
2017-06-17T04:15:59.664Z,472
2017-06-17T04:17:00.104Z,448
2017-06-17T04:18:00.001Z,408
2017-06-17T04:18:59.695Z,384
2017-06-17T04:19:59.995Z,376
2017-06-17T04:20:59.584Z,376
2017-06-17T04:21:59.994Z,360
2017-06-17T04:22:59.927Z,344
2017-06-17T04:23:59.548Z,340
2017-06-17T04:24:59.521Z,352
2017-06-17T04:25:59.190Z,372
2017-06-17T04:26:59.806Z,400
2017-06-17T04:27:59.173Z,428
2017-06-17T04:28:59.462Z,444
2017-06-17T04:29:59.862Z,464
2017-06-17T04:30:59.437Z,476
2017-06-17T04:31:59.771Z,476
2017-06-17T04:32:59.080Z,520
2017-06-17T04:33:59.677Z,548
2017-06-17T04:34:59.657Z,596
2017-06-17T04:35:59.350Z,640
2017-06-17T04:36:59.320Z,656
2017-06-17T04:37:59.600Z,604
2017-06-17T04:38:58.989Z,540
2017-06-17T04:39:59.603Z,504
2017-06-17T04:40:59.259Z,476
2017-06-17T04:41:59.244Z,472
2017-06-17T04:42:59.617Z,468
2017-06-17T04:43:58.892Z,472
2017-06-17T04:44:59.491Z,468
2017-06-17T04:45:59.187Z,468
2017-06-17T04:46:59.150Z,472
2017-06-17T04:47:59.141Z,476
2017-06-17T04:48:58.807Z,492
2017-06-17T04:49:59.400Z,512
2017-06-17T04:50:59.091Z,524
2017-06-17T04:51:59.112Z,528
2017-06-17T04:52:59.052Z,528
2017-06-17T04:53:59.345Z,512
2017-06-17T04:54:59.010Z,496
2017-06-17T04:55:59.023Z,484
2017-06-17T04:56:58.970Z,472
2017-06-17T04:57:58.996Z,468
2017-06-17T04:58:59.252Z,468
2017-06-17T04:59:58.618Z,484
2017-06-17T05:00:58.610Z,492
2017-06-17T05:01:59.200Z,516
2017-06-17T05:02:58.879Z,524
2017-06-17T05:03:58.932Z,516
2017-06-17T05:04:58.553Z,528
2017-06-17T05:05:58.838Z,552
2017-06-17T05:06:58.811Z,572
2017-06-17T05:07:58.802Z,564
2017-06-17T05:08:59.102Z,572
2017-06-17T05:09:58.140Z,584
2017-06-17T05:10:58.777Z,592
2017-06-17T05:11:58.731Z,592
2017-06-17T05:12:59.234Z,592
2017-06-17T05:13:59.011Z,608
2017-06-17T05:14:59.021Z,612
2017-06-17T05:15:58.743Z,600
2017-06-17T05:16:58.659Z,600
2017-06-17T05:17:58.621Z,612
2017-06-17T05:18:58.933Z,628
2017-06-17T05:19:58.000Z,652
2017-06-17T05:20:58.902Z,684
2017-06-17T05:21:58.263Z,708
2017-06-17T05:22:58.300Z,724
2017-06-17T05:23:58.850Z,740
2017-06-17T05:24:58.582Z,776
2017-06-17T05:25:58.524Z,820
2017-06-17T05:26:58.211Z,828
2017-06-17T05:27:58.166Z,808
2017-06-17T05:28:58.453Z,828
2017-06-17T05:29:58.742Z,888
2017-06-17T05:30:58.112Z,904
2017-06-17T05:31:58.100Z,924
2017-06-17T05:32:58.400Z,944
2017-06-17T05:33:58.361Z,948
2017-06-17T05:34:57.762Z,932
2017-06-17T05:35:58.024Z,900
2017-06-17T05:36:58.331Z,860
2017-06-17T05:37:57.702Z,828
2017-06-17T05:38:58.016Z,792
2017-06-17T05:39:58.269Z,776
2017-06-17T05:40:57.935Z,756
2017-06-17T05:41:58.221Z,740
2017-06-17T05:42:58.202Z,736
2017-06-17T05:43:57.902Z,740
2017-06-17T05:44:58.511Z,736
2017-06-17T05:45:58.467Z,756
2017-06-17T05:46:58.451Z,800
2017-06-17T05:47:57.882Z,864
2017-06-17T05:48:57.813Z,900
2017-06-17T05:49:58.400Z,920
2017-06-17T05:50:57.777Z,944
2017-06-17T05:51:58.119Z,988
2017-06-17T05:52:58.370Z,1024
2017-06-17T05:53:57.731Z,1044
2017-06-17T05:54:58.019Z,1064
2017-06-17T05:55:58.333Z,1064
2017-06-17T05:56:58.282Z,1060
2017-06-17T05:57:58.319Z,1044
2017-06-17T05:58:57.953Z,1080
2017-06-17T05:59:57.931Z,1120
2017-06-17T06:00:57.913Z,1188
2017-06-17T06:01:57.887Z,1244
2017-06-17T06:02:57.892Z,1284
2017-06-17T06:03:58.004Z,1360
2017-06-17T06:04:58.149Z,1372
2017-06-17T06:05:57.889Z,1396
2017-06-17T06:06:58.111Z,1520
2017-06-17T06:07:58.113Z,1700
2017-06-17T06:08:57.806Z,1816
2017-06-17T06:09:58.076Z,1864
2017-06-17T06:10:57.845Z,1892
2017-06-17T06:11:57.122Z,1984
2017-06-17T06:12:57.732Z,2188
2017-06-17T06:13:57.702Z,2384
2017-06-17T06:14:57.692Z,2488
2017-06-17T06:15:57.704Z,2536
2017-06-17T06:16:57.960Z,2564
2017-06-17T06:17:57.662Z,2640
2017-06-17T06:18:57.925Z,2772
2017-06-17T06:19:57.913Z,2780
2017-06-17T06:20:57.892Z,2696
2017-06-17T06:21:57.582Z,2668
2017-06-17T06:22:57.564Z,2664
2017-06-17T06:23:57.859Z,2592
2017-06-17T06:24:57.851Z,2596
2017-06-17T06:25:57.518Z,2668
2017-06-17T06:26:57.490Z,2704
2017-06-17T06:27:57.782Z,2672
2017-06-17T06:28:57.764Z,2660
2017-06-17T06:29:57.751Z,2636
2017-06-17T06:30:57.422Z,2652
2017-06-17T06:31:57.702Z,2728
2017-06-17T06:32:57.715Z,2644
2017-06-17T06:33:57.682Z,2492
2017-06-17T06:34:57.654Z,2364
2017-06-17T06:35:57.343Z,1896
2017-06-17T06:36:57.639Z,2332
2017-06-17T06:37:57.601Z,2436
2017-06-17T06:38:57.614Z,2496
2017-06-17T06:39:57.633Z,2524
2017-06-17T06:40:57.262Z,2504
2017-06-17T06:41:57.231Z,2464
2017-06-17T06:42:57.558Z,2412
2017-06-17T06:43:56.604Z,2348
2017-06-17T06:44:57.191Z,2304
2017-06-17T06:45:57.192Z,2244
2017-06-17T06:46:57.172Z,2232
2017-06-17T06:47:57.471Z,2212
2017-06-17T06:48:57.459Z,2120
2017-06-17T06:49:56.505Z,1960
2017-06-17T06:50:57.086Z,1892
2017-06-17T06:51:57.086Z,1772
2017-06-17T06:52:57.071Z,1632
2017-06-17T06:53:56.784Z,1712
2017-06-17T06:54:57.144Z,1668
2017-06-17T06:55:57.031Z,1736
2017-06-17T06:56:57.332Z,1756
2017-06-17T06:57:57.282Z,1752
2017-06-17T06:58:57.006Z,1760
2017-06-17T06:59:56.952Z,1756
2017-06-17T07:00:57.271Z,1848
2017-06-17T07:01:56.950Z,1964
2017-06-17T07:02:57.331Z,2032
2017-06-17T07:03:57.220Z,2076
2017-06-17T07:04:57.242Z,2200
2017-06-17T07:05:56.582Z,2276
2017-06-17T07:06:57.164Z,2388
2017-06-17T07:07:57.044Z,2476
2017-06-17T07:08:56.925Z,2600
2017-06-17T07:09:57.142Z,2832
2017-06-17T07:10:56.285Z,3100
2017-06-17T07:11:56.782Z,3160
2017-06-17T07:12:56.887Z,3172
2017-06-17T07:13:57.072Z,3100
2017-06-17T07:14:56.731Z,3060
2017-06-17T07:15:56.433Z,2980
2017-06-17T07:16:56.403Z,2824
2017-06-17T07:17:56.776Z,2656
2017-06-17T07:18:56.693Z,2744
2017-06-17T07:19:56.346Z,2796
2017-06-17T07:20:56.694Z,2720
2017-06-17T07:21:56.454Z,2668
2017-06-17T07:22:56.375Z,2580
2017-06-17T07:23:55.998Z,2448
2017-06-17T07:24:56.594Z,2464
2017-06-17T07:25:56.773Z,2616
2017-06-17T07:26:56.937Z,2748
2017-06-17T07:27:56.844Z,2696
2017-06-17T07:28:56.822Z,2604
2017-06-17T07:29:56.853Z,2604
2017-06-17T07:30:56.912Z,2736
2017-06-17T07:31:56.162Z,2692
2017-06-17T07:32:56.807Z,2784
2017-06-17T07:33:56.442Z,3016
2017-06-17T07:34:56.454Z,3104
2017-06-17T07:35:56.087Z,3192
2017-06-17T07:36:55.792Z,3292
2017-06-17T07:37:56.795Z,3488
2017-06-17T07:38:56.694Z,3728
2017-06-17T07:39:56.655Z,3524
2017-06-17T07:40:56.197Z,3388
2017-06-17T07:41:56.052Z,3264
2017-06-17T07:42:56.623Z,3092
2017-06-17T07:43:56.374Z,2964
2017-06-17T07:44:55.974Z,2736
2017-06-17T07:45:55.702Z,2512
2017-06-17T07:46:56.253Z,2436
2017-06-17T07:47:56.616Z,2452
2017-06-17T07:48:56.793Z,2588
2017-06-17T07:49:55.631Z,2696
2017-06-17T07:50:56.423Z,2816
2017-06-17T07:51:55.646Z,3032
2017-06-17T07:52:56.570Z,3260
2017-06-17T07:53:56.582Z,3204
2017-06-17T07:54:56.133Z,3220
2017-06-17T07:55:56.442Z,3296
2017-06-17T07:56:56.121Z,3608
2017-06-17T07:57:55.766Z,3944
2017-06-17T07:58:56.383Z,3820
2017-06-17T07:59:56.074Z,3616
2017-06-17T08:00:56.402Z,3788
2017-06-17T08:01:56.396Z,4012
2017-06-17T08:02:55.994Z,4768
2017-06-17T08:03:56.284Z,5208
2017-06-17T08:04:55.683Z,5000
2017-06-17T08:05:55.939Z,4804
2017-06-17T08:06:56.123Z,4604
2017-06-17T08:07:56.216Z,4980
2017-06-17T08:08:56.229Z,5024
2017-06-17T08:09:56.204Z,4904
2017-06-17T08:10:56.022Z,4776
2017-06-17T08:11:55.871Z,4412
2017-06-17T08:12:55.240Z,4112
2017-06-17T08:13:55.549Z,3712
2017-06-17T08:14:56.215Z,3668
2017-06-17T08:15:55.486Z,3508
2017-06-17T08:16:55.791Z,3396
2017-06-17T08:17:55.785Z,3472
2017-06-17T08:18:55.769Z,3528
2017-06-17T08:19:55.733Z,3460
2017-06-17T08:20:55.722Z,3408
2017-06-17T08:21:55.423Z,3508
2017-06-17T08:22:55.405Z,3504
2017-06-17T08:23:56.010Z,3532
2017-06-17T08:24:56.013Z,3520
2017-06-17T08:25:55.694Z,3708
2017-06-17T08:26:55.952Z,3932
2017-06-17T08:27:55.638Z,3928
2017-06-17T08:28:55.613Z,3708
2017-06-17T08:29:55.923Z,3584
2017-06-17T08:30:55.293Z,3472
2017-06-17T08:31:55.883Z,3468
2017-06-17T08:32:55.563Z,3576
2017-06-17T08:33:55.642Z,3508
2017-06-17T08:34:55.841Z,3240
2017-06-17T08:35:55.923Z,3124
2017-06-17T08:36:55.199Z,3188
2017-06-17T08:37:55.533Z,3244
2017-06-17T08:38:55.779Z,3288
2017-06-17T08:39:55.463Z,3512
2017-06-17T08:40:55.440Z,3984
2017-06-17T08:41:55.753Z,4272
2017-06-17T08:42:55.733Z,4288
2017-06-17T08:43:55.396Z,4176
2017-06-17T08:44:55.393Z,4204
2017-06-17T08:45:54.824Z,4392
2017-06-17T08:46:55.345Z,4596
2017-06-17T08:47:55.334Z,4692
2017-06-17T08:48:55.657Z,4932
2017-06-17T08:49:55.314Z,5092
2017-06-17T08:50:55.299Z,5048
2017-06-17T08:51:55.582Z,4960
2017-06-17T08:52:55.564Z,5000
2017-06-17T08:53:55.565Z,5076
2017-06-17T08:54:55.547Z,5324
2017-06-17T08:55:55.265Z,5392
2017-06-17T08:56:55.539Z,5476
2017-06-17T08:57:55.205Z,5704
2017-06-17T08:58:55.483Z,5840
2017-06-17T08:59:55.177Z,5908
2017-06-17T09:00:55.612Z,6096
2017-06-17T09:01:55.468Z,5924
2017-06-17T09:02:55.124Z,5708
2017-06-17T09:03:54.873Z,5476
2017-06-17T09:04:55.409Z,5484
2017-06-17T09:05:55.401Z,5808
2017-06-17T09:06:55.392Z,5936
2017-06-17T09:07:55.098Z,5952
2017-06-17T09:08:55.367Z,5940
2017-06-17T09:09:55.370Z,5864
2017-06-17T09:10:55.344Z,5440
2017-06-17T09:11:55.316Z,5200
2017-06-17T09:12:55.313Z,4888
2017-06-17T09:13:55.334Z,4640
2017-06-17T09:14:55.259Z,4588
2017-06-17T09:15:55.059Z,4520
2017-06-17T09:16:54.939Z,4460
2017-06-17T09:17:55.244Z,4536
2017-06-17T09:18:54.907Z,4940
2017-06-17T09:19:55.221Z,5192
2017-06-17T09:20:55.209Z,5176
2017-06-17T09:21:54.874Z,5200
2017-06-17T09:22:54.644Z,5104
2017-06-17T09:23:54.830Z,5248
2017-06-17T09:24:54.825Z,5364
2017-06-17T09:25:54.833Z,5396
2017-06-17T09:26:54.795Z,5328
2017-06-17T09:27:55.084Z,5100
2017-06-17T09:28:54.753Z,5016
2017-06-17T09:29:54.744Z,5016
2017-06-17T09:30:54.431Z,5176
2017-06-17T09:31:55.052Z,5412
2017-06-17T09:32:54.399Z,5484
2017-06-17T09:33:55.011Z,5348
2017-06-17T09:34:54.362Z,5004
2017-06-17T09:35:54.419Z,4900
2017-06-17T09:36:54.952Z,5004
2017-06-17T09:37:54.938Z,4892
2017-06-17T09:38:54.928Z,4688
2017-06-17T09:39:54.913Z,4532
2017-06-17T09:40:54.282Z,4536
2017-06-17T09:41:54.900Z,4552
2017-06-17T09:42:54.867Z,4504
2017-06-17T09:43:54.850Z,4384
2017-06-17T09:44:54.241Z,4244
2017-06-17T09:45:54.642Z,4312
2017-06-17T09:46:54.823Z,4600
2017-06-17T09:47:54.802Z,4824
2017-06-17T09:48:54.177Z,4896
2017-06-17T09:49:54.773Z,5056
2017-06-17T09:50:54.747Z,5064
2017-06-17T09:51:54.133Z,4968
2017-06-17T09:52:54.519Z,4884
2017-06-17T09:53:54.522Z,4872
2017-06-17T09:54:54.112Z,4788
2017-06-17T09:55:54.141Z,4684
2017-06-17T09:56:54.439Z,4572
2017-06-17T09:57:54.370Z,4728
2017-06-17T09:58:54.109Z,4972
2017-06-17T09:59:54.410Z,4880
2017-06-17T10:00:54.640Z,4740
2017-06-17T10:01:54.300Z,4568
2017-06-17T10:02:54.308Z,4444
2017-06-17T10:03:54.383Z,4404
2017-06-17T10:04:54.361Z,4088
2017-06-17T10:05:54.303Z,3916
2017-06-17T10:06:53.930Z,3788
2017-06-17T10:07:54.239Z,3644
2017-06-17T10:08:53.911Z,3544
2017-06-17T10:09:54.225Z,3380
2017-06-17T10:10:54.503Z,3236
2017-06-17T10:11:54.507Z,3052
2017-06-17T10:12:54.173Z,2980
2017-06-17T10:13:54.141Z,3124
2017-06-17T10:14:53.834Z,3168
2017-06-17T10:15:54.463Z,3128
2017-06-17T10:16:53.815Z,3032
2017-06-17T10:17:54.473Z,3092
2017-06-17T10:18:53.764Z,3220
2017-06-17T10:19:54.512Z,3260
2017-06-17T10:20:54.400Z,3156
2017-06-17T10:21:54.032Z,3172
2017-06-17T10:22:53.718Z,3300
2017-06-17T10:23:53.409Z,3548
2017-06-17T10:24:53.680Z,3816
2017-06-17T10:25:54.310Z,3996
2017-06-17T10:26:54.281Z,4396
2017-06-17T10:27:54.258Z,4724
2017-06-17T10:28:54.262Z,4968
2017-06-17T10:29:53.922Z,5076
2017-06-17T10:30:53.921Z,4720
2017-06-17T10:31:53.600Z,4648
2017-06-17T10:32:54.259Z,4800
2017-06-17T10:33:54.173Z,4844
2017-06-17T10:34:53.881Z,4592
2017-06-17T10:35:53.550Z,4564
2017-06-17T10:36:53.661Z,4640
2017-06-17T10:37:54.142Z,4516
2017-06-17T10:38:54.134Z,4432
2017-06-17T10:39:53.790Z,4412
2017-06-17T10:40:53.481Z,4392
2017-06-17T10:41:54.082Z,4392
2017-06-17T10:42:54.064Z,4472
2017-06-17T10:43:54.090Z,4744
2017-06-17T10:44:54.042Z,4960
2017-06-17T10:45:53.090Z,5200
2017-06-17T10:46:54.060Z,5232
2017-06-17T10:47:54.021Z,5120
2017-06-17T10:48:53.686Z,5036
2017-06-17T10:49:53.979Z,4828
2017-06-17T10:50:53.642Z,4484
2017-06-17T10:51:53.632Z,4400
2017-06-17T10:52:53.920Z,4492
2017-06-17T10:53:53.930Z,4392
2017-06-17T10:54:53.612Z,4108
2017-06-17T10:55:53.561Z,3688
2017-06-17T10:56:53.272Z,3488
2017-06-17T10:57:53.860Z,3436
2017-06-17T10:58:53.551Z,3556
2017-06-17T10:59:53.522Z,3372
2017-06-17T11:00:53.499Z,3412
2017-06-17T11:01:53.803Z,3588
2017-06-17T11:02:53.191Z,3896
2017-06-17T11:03:53.461Z,4260
2017-06-17T11:04:53.759Z,4432
2017-06-17T11:05:53.130Z,4284
2017-06-17T11:06:53.138Z,4028
2017-06-17T11:07:53.730Z,4096
2017-06-17T11:08:53.109Z,4248
2017-06-17T11:09:53.400Z,4316
2017-06-17T11:10:53.370Z,4212
2017-06-17T11:11:53.054Z,4348
2017-06-17T11:12:53.677Z,4268
2017-06-17T11:13:53.664Z,4196
2017-06-17T11:14:53.020Z,3772
2017-06-17T11:15:53.310Z,3516
2017-06-17T11:16:53.603Z,3344
2017-06-17T11:17:52.977Z,3224
2017-06-17T11:18:53.269Z,3412
2017-06-17T11:19:52.958Z,3816
2017-06-17T11:20:53.568Z,3940
2017-06-17T11:21:52.948Z,3812
2017-06-17T11:22:53.522Z,3640
2017-06-17T11:23:53.507Z,3440
2017-06-17T11:24:52.892Z,3444
2017-06-17T11:25:53.258Z,3512
2017-06-17T11:26:52.868Z,3736
2017-06-17T11:27:53.460Z,3996
2017-06-17T11:28:52.839Z,4160
2017-06-17T11:29:53.140Z,4324
2017-06-17T11:30:53.109Z,4232
2017-06-17T11:31:53.419Z,4968
2017-06-17T11:32:53.089Z,4972
2017-06-17T11:33:53.108Z,4896
2017-06-17T11:34:53.058Z,5332
2017-06-17T11:35:52.796Z,5780
2017-06-17T11:36:53.041Z,5980
2017-06-17T11:37:53.092Z,6216
2017-06-17T11:38:53.020Z,6456
2017-06-17T11:39:53.425Z,5692
2017-06-17T11:40:52.998Z,5128
2017-06-17T11:41:52.968Z,4676
2017-06-17T11:42:52.647Z,4728
2017-06-17T11:43:52.960Z,5028
2017-06-17T11:44:52.930Z,4928
2017-06-17T11:45:53.038Z,5020
2017-06-17T11:46:53.230Z,4732
2017-06-17T11:47:52.910Z,3988
2017-06-17T11:48:53.006Z,3708
2017-06-17T11:49:53.252Z,3740
2017-06-17T11:50:52.976Z,3652
2017-06-17T11:51:53.141Z,3444
2017-06-17T11:52:52.911Z,3344
2017-06-17T11:53:52.840Z,3640
2017-06-17T11:54:53.231Z,4024
2017-06-17T11:55:53.108Z,4552
2017-06-17T11:56:52.841Z,4580
2017-06-17T11:57:53.092Z,4172
2017-06-17T11:58:53.073Z,3532
2017-06-17T11:59:53.060Z,3452
2017-06-17T12:00:53.034Z,3552
2017-06-17T12:01:53.045Z,3320
2017-06-17T12:02:53.015Z,2976
2017-06-17T12:03:53.005Z,2636
2017-06-17T12:04:52.999Z,2472
2017-06-17T12:05:53.048Z,2372
2017-06-17T12:06:52.651Z,2348
2017-06-17T12:07:52.640Z,2340
2017-06-17T12:08:52.959Z,2328
2017-06-17T12:09:52.926Z,2328
2017-06-17T12:10:52.898Z,2412
2017-06-17T12:11:52.580Z,2616
2017-06-17T12:12:52.562Z,2932
2017-06-17T12:13:52.558Z,3208
2017-06-17T12:14:52.571Z,3296
2017-06-17T12:15:52.532Z,3324
2017-06-17T12:16:52.499Z,3504
2017-06-17T12:17:52.216Z,3768
2017-06-17T12:18:52.494Z,3780
2017-06-17T12:19:52.628Z,4232
2017-06-17T12:20:52.806Z,5012
2017-06-17T12:21:52.788Z,6440
2017-06-17T12:22:52.461Z,8160
2017-06-17T12:23:52.739Z,8776
2017-06-17T12:24:52.435Z,8844
2017-06-17T12:25:52.715Z,8996
2017-06-17T12:26:52.693Z,9408
2017-06-17T12:27:52.691Z,9696
2017-06-17T12:28:52.080Z,10304
2017-06-17T12:29:52.360Z,9696
2017-06-17T12:30:52.329Z,9532
2017-06-17T12:31:52.635Z,9776
2017-06-17T12:32:52.332Z,9604
2017-06-17T12:33:52.370Z,9688
2017-06-17T12:34:52.300Z,9916
2017-06-17T12:35:52.608Z,10160
2017-06-17T12:36:51.961Z,10416
2017-06-17T12:37:52.351Z,11560
2017-06-17T12:38:52.539Z,13568
2017-06-17T12:39:52.235Z,12800
2017-06-17T12:40:52.227Z,10532
2017-06-17T12:41:52.241Z,8744
2017-06-17T12:42:52.495Z,8840
2017-06-17T12:43:52.479Z,9768
2017-06-17T12:44:52.481Z,9848
2017-06-17T12:45:52.501Z,9804
2017-06-17T12:46:52.570Z,6316
2017-06-17T12:47:52.442Z,9880
2017-06-17T12:48:51.812Z,10936
2017-06-17T12:49:52.430Z,8000
2017-06-17T12:50:52.513Z,7864
2017-06-17T12:51:52.401Z,7580
2017-06-17T12:52:51.791Z,8156
2017-06-17T12:53:52.410Z,7972
2017-06-17T12:54:52.389Z,7996
2017-06-17T12:55:52.370Z,7812
2017-06-17T12:56:51.742Z,7388
2017-06-17T12:57:51.729Z,7272
2017-06-17T12:58:52.362Z,6584
2017-06-17T12:59:52.019Z,6268
2017-06-17T13:00:52.009Z,6744
2017-06-17T13:01:52.401Z,7568
2017-06-17T13:02:51.710Z,7280
2017-06-17T13:03:51.962Z,6436
2017-06-17T13:04:51.960Z,5848
2017-06-17T13:05:52.271Z,5836
2017-06-17T13:06:51.317Z,5704
2017-06-17T13:07:51.937Z,5660
2017-06-17T13:08:51.929Z,5240
2017-06-17T13:09:51.619Z,4516
2017-06-17T13:10:52.226Z,3872
2017-06-17T13:11:52.211Z,3552
2017-06-17T13:12:51.609Z,3140
2017-06-17T13:13:51.870Z,2876
2017-06-17T13:14:52.231Z,2776
2017-06-17T13:15:51.520Z,2560
2017-06-17T13:16:51.829Z,2532
2017-06-17T13:17:51.813Z,2708
2017-06-17T13:18:52.126Z,2900
2017-06-17T13:19:51.507Z,2972
2017-06-17T13:20:51.479Z,3168
2017-06-17T13:21:52.070Z,3040
2017-06-17T13:22:51.460Z,2904
2017-06-17T13:23:51.749Z,2868
2017-06-17T13:24:52.068Z,2784
2017-06-17T13:25:51.423Z,2872
2017-06-17T13:26:51.713Z,3064
2017-06-17T13:27:52.038Z,3172
2017-06-17T13:28:51.819Z,3168
2017-06-17T13:29:51.685Z,3172
2017-06-17T13:30:51.989Z,3328
2017-06-17T13:31:51.668Z,3384
2017-06-17T13:32:51.980Z,3744
2017-06-17T13:33:51.739Z,4224
2017-06-17T13:34:51.610Z,5096
2017-06-17T13:35:51.910Z,7496
2017-06-17T13:36:51.611Z,9244
2017-06-17T13:37:51.899Z,10252
2017-06-17T13:38:51.589Z,10504
2017-06-17T13:39:51.251Z,10564
2017-06-17T13:40:51.875Z,7584
2017-06-17T13:41:51.571Z,6660